Time;durP1;ratioP1;P1;durP2;ratioP2;P2;SDS_P1;SDS_P2;PMS_P1;PMS_P2;Temp;Humidity;BMP_temperature;BMP_pressure;BME280_temperature;BME280_humidity;BME280_pressure;Samples;Min_cycle;Max_cycle;Signal;HPM_P1;HPM_P2
2023/04/21 00:01:42;;;;;;;1999.90;773.03;;;9.20;99.90;;;;;;5111380;28;20238;-52
2023/04/21 00:04:12;;;;;;;1976.33;350.63;;;9.30;99.90;;;;;;5111052;28;20285;-52
2023/04/21 00:06:41;;;;;;;1999.90;807.10;;;9.30;99.90;;;;;;5110497;28;20228;-53
2023/04/21 00:09:09;;;;;;;1999.90;433.97;;;9.40;99.90;;;;;;5108588;28;20204;-52
2023/04/21 00:11:37;;;;;;;1999.90;632.43;;;9.30;99.90;;;;;;5106175;28;20270;-52
2023/04/21 00:14:05;;;;;;;1658.10;240.77;;;9.30;99.90;;;;;;5110987;28;20972;-52
2023/04/21 00:16:35;;;;;;;1999.90;328.47;;;9.40;99.90;;;;;;5111050;28;20296;-52
2023/04/21 00:19:05;;;;;;;1999.90;632.67;;;9.40;99.90;;;;;;5083397;28;20207;-51
2023/04/21 00:21:33;;;;;;;1334.53;217.03;;;9.40;99.90;;;;;;5108825;28;20290;-52
2023/04/21 00:24:02;;;;;;;1999.90;270.00;;;9.40;99.90;;;;;;5110080;28;20219;-52
2023/04/21 00:26:30;;;;;;;1999.90;288.77;;;9.40;99.90;;;;;;5102388;28;20232;-52
2023/04/21 00:28:58;;;;;;;1853.47;331.77;;;9.50;99.90;;;;;;5108702;28;20776;-52
2023/04/21 00:31:26;;;;;;;1999.90;419.50;;;9.50;99.90;;;;;;5094125;28;20237;-52
2023/04/21 00:33:55;;;;;;;1999.90;689.37;;;9.50;99.90;;;;;;5096555;28;20235;-52
2023/04/21 00:36:26;;;;;;;1480.47;180.10;;;9.60;99.90;;;;;;5087422;28;20291;-52
2023/04/21 00:38:54;;;;;;;1894.67;410.07;;;9.50;99.90;;;;;;5098348;28;20292;-53
2023/04/21 00:41:23;;;;;;;978.77;166.33;;;9.60;99.90;;;;;;5103611;28;20682;-53
2023/04/21 00:44:01;;;;;;;1645.50;304.80;;;9.60;99.90;;;;;;5103617;28;20285;-53
2023/04/21 00:46:29;;;;;;;1999.90;639.57;;;9.60;99.90;;;;;;5084349;28;20259;-52
2023/04/21 00:48:59;;;;;;;1999.90;333.33;;;9.70;99.90;;;;;;5110802;28;20213;-52
2023/04/21 00:51:28;;;;;;;1999.90;705.67;;;9.60;99.90;;;;;;5108614;28;20208;-53
2023/04/21 00:53:56;;;;;;;1999.90;517.93;;;9.70;99.90;;;;;;5110438;28;20232;-52
2023/04/21 00:56:26;;;;;;;1999.90;502.03;;;9.60;99.90;;;;;;5100584;28;20227;-52
2023/04/21 00:58:54;;;;;;;1999.90;310.37;;;9.60;99.90;;;;;;5110508;28;20286;-53
2023/04/21 01:01:23;;;;;;;1698.10;300.20;;;9.60;99.90;;;;;;5107520;28;20298;-52
2023/04/21 01:03:51;;;;;;;1999.90;688.50;;;9.60;99.90;;;;;;5103380;28;20786;-53
2023/04/21 01:06:21;;;;;;;1999.90;414.07;;;9.70;99.90;;;;;;5106134;28;20267;-52
2023/04/21 01:08:50;;;;;;;1999.90;273.10;;;9.60;99.90;;;;;;5110018;28;20283;-52
2023/04/21 01:11:18;;;;;;;251.17;75.67;;;9.60;99.90;;;;;;5110037;28;20261;-52
2023/04/21 01:13:46;;;;;;;538.73;121.07;;;9.60;99.90;;;;;;5109959;28;20281;-52
2023/04/21 01:16:16;;;;;;;829.37;139.77;;;9.60;99.90;;;;;;5104431;28;20276;-52
2023/04/21 01:18:45;;;;;;;1581.83;211.67;;;9.50;99.90;;;;;;5082906;28;20200;-52
2023/04/21 01:21:13;;;;;;;1522.57;242.80;;;9.50;99.90;;;;;;5097595;28;20287;-52
2023/04/21 01:23:43;;;;;;;1999.90;325.00;;;9.60;99.90;;;;;;5108776;28;20671;-52
2023/04/21 01:26:11;;;;;;;1999.90;433.03;;;9.60;99.90;;;;;;5109317;28;20223;-52
2023/04/21 01:28:39;;;;;;;1999.90;411.03;;;9.60;99.90;;;;;;5105467;28;20202;-51
2023/04/21 01:31:07;;;;;;;678.50;138.97;;;9.60;99.90;;;;;;5086035;28;20213;-52
2023/04/21 01:33:35;;;;;;;1999.90;322.33;;;9.60;99.90;;;;;;5087316;28;20250;-52
2023/04/21 01:36:03;;;;;;;505.47;89.40;;;9.60;99.90;;;;;;5088849;28;20228;-52
2023/04/21 01:38:31;;;;;;;1423.13;215.83;;;9.50;99.90;;;;;;5088594;28;20295;-52
2023/04/21 01:41:00;;;;;;;1999.90;656.00;;;9.50;99.90;;;;;;5088547;28;20214;-52
2023/04/21 01:43:28;;;;;;;1999.90;795.67;;;9.50;99.90;;;;;;5089004;28;20218;-52
2023/04/21 01:45:56;;;;;;;1244.20;192.77;;;9.60;99.90;;;;;;5088799;28;20246;-52
2023/04/21 01:48:24;;;;;;;1918.13;258.70;;;9.60;99.90;;;;;;5088786;28;20321;-52
2023/04/21 01:50:52;;;;;;;830.73;171.20;;;9.60;99.90;;;;;;5089078;28;20259;-52
2023/04/21 01:53:20;;;;;;;1999.90;616.77;;;9.60;99.90;;;;;;5088799;28;20686;-52
2023/04/21 01:55:49;;;;;;;608.07;112.23;;;9.60;99.90;;;;;;5088345;28;20246;-52
2023/04/21 01:58:18;;;;;;;1999.90;682.17;;;9.60;99.90;;;;;;5088381;28;20208;-52
2023/04/21 02:00:46;;;;;;;594.47;137.00;;;9.60;99.90;;;;;;5088752;28;20208;-52
2023/04/21 02:03:14;;;;;;;1558.20;237.03;;;9.50;99.90;;;;;;5088505;28;20218;-53
2023/04/21 02:05:42;;;;;;;562.07;106.33;;;9.50;99.90;;;;;;5088513;28;20225;-52
2023/04/21 02:08:10;;;;;;;290.87;86.97;;;9.50;99.90;;;;;;5088640;28;20256;-52
2023/04/21 02:10:38;;;;;;;1999.90;435.10;;;9.50;99.90;;;;;;5088686;28;20220;-52
2023/04/21 02:13:06;;;;;;;1043.07;145.43;;;9.50;99.90;;;;;;5088495;28;20207;-53
2023/04/21 02:15:37;;;;;;;347.50;94.90;;;9.50;99.90;;;;;;5088030;28;20310;-52
2023/04/21 02:18:07;;;;;;;1999.90;376.93;;;9.50;99.90;;;;;;5088624;28;20208;-53
2023/04/21 02:20:35;;;;;;;1999.90;380.10;;;9.50;99.90;;;;;;5088375;28;20288;-52
2023/04/21 02:23:03;;;;;;;1289.50;267.50;;;9.50;99.90;;;;;;5088276;28;20224;-53
2023/04/21 02:25:31;;;;;;;1999.90;661.37;;;9.60;99.90;;;;;;5088227;28;20251;-52
2023/04/21 02:27:59;;;;;;;1999.90;308.83;;;9.50;99.90;;;;;;5087586;28;20226;-52
2023/04/21 02:30:27;;;;;;;872.50;165.13;;;9.50;99.90;;;;;;5087513;28;20283;-52
2023/04/21 02:32:57;;;;;;;1999.90;282.60;;;9.60;99.90;;;;;;5086542;28;20988;-52
2023/04/21 02:35:26;;;;;;;1999.90;605.77;;;9.50;99.90;;;;;;5087793;28;20219;-52
2023/04/21 02:37:54;;;;;;;1999.90;681.10;;;9.50;99.90;;;;;;5087990;28;20253;-52
2023/04/21 02:40:22;;;;;;;1999.90;709.37;;;9.60;99.90;;;;;;5088047;28;20291;-51
2023/04/21 02:42:50;;;;;;;1723.53;270.50;;;9.70;99.90;;;;;;5088216;28;20260;-52
2023/04/21 02:45:18;;;;;;;1999.90;461.40;;;9.60;99.90;;;;;;5088224;28;20312;-53
2023/04/21 02:47:46;;;;;;;1999.90;339.30;;;9.50;99.90;;;;;;5088009;28;20770;-53
2023/04/21 02:50:16;;;;;;;716.00;112.13;;;9.50;99.90;;;;;;5088366;28;20235;-53
2023/04/21 02:52:43;;;;;;;1066.80;148.33;;;9.40;99.90;;;;;;5088102;28;20307;-52
2023/04/21 02:55:11;;;;;;;1999.90;572.80;;;9.50;99.90;;;;;;5087963;28;20824;-52
2023/04/21 02:57:39;;;;;;;1683.73;259.57;;;9.60;99.90;;;;;;5088133;28;20208;-53
2023/04/21 03:00:10;;;;;;;1872.90;275.00;;;9.50;99.90;;;;;;5088244;28;20208;-52
2023/04/21 03:02:38;;;;;;;1505.10;277.20;;;9.50;99.90;;;;;;5087896;28;20303;-53
2023/04/21 03:05:07;;;;;;;1999.90;313.87;;;9.50;99.90;;;;;;5087944;28;20224;-52
2023/04/21 03:07:37;;;;;;;983.77;180.50;;;9.50;99.90;;;;;;5088802;28;20654;-52
2023/04/21 03:10:06;;;;;;;1999.90;370.00;;;9.60;99.90;;;;;;5091746;28;20770;-52
2023/04/21 03:12:34;;;;;;;1012.77;176.53;;;9.60;99.90;;;;;;5091807;28;20209;-52
2023/04/21 03:15:02;;;;;;;443.83;83.80;;;9.50;99.90;;;;;;5091927;28;20327;-52
2023/04/21 03:17:30;;;;;;;207.60;81.50;;;9.50;99.90;;;;;;5091842;28;20301;-52
2023/04/21 03:20:00;;;;;;;980.20;155.20;;;9.50;99.90;;;;;;5091986;28;20223;-53
2023/04/21 03:22:28;;;;;;;1445.63;205.27;;;9.50;99.90;;;;;;5091412;28;20674;-52
2023/04/21 03:24:57;;;;;;;1999.90;509.03;;;9.50;99.90;;;;;;5091692;28;20224;-52
2023/04/21 03:27:25;;;;;;;322.10;83.70;;;9.60;99.90;;;;;;5090588;28;20973;-52
2023/04/21 03:29:53;;;;;;;1999.90;743.10;;;9.60;99.90;;;;;;5090046;28;20215;-51
2023/04/21 03:32:21;;;;;;;1999.90;440.10;;;9.70;99.90;;;;;;5088890;28;20307;-52
2023/04/21 03:34:50;;;;;;;1999.90;642.40;;;9.60;99.90;;;;;;5087097;28;20666;-52
2023/04/21 03:37:18;;;;;;;1999.90;851.83;;;9.60;99.90;;;;;;5091175;28;20204;-52
2023/04/21 03:39:46;;;;;;;1999.90;764.13;;;9.60;99.90;;;;;;5091509;28;20285;-52
2023/04/21 03:42:15;;;;;;;1844.97;279.43;;;9.60;99.90;;;;;;5083862;28;20232;-52
2023/04/21 03:44:43;;;;;;;1999.90;813.27;;;9.60;99.90;;;;;;5085195;28;20775;-52
2023/04/21 03:47:11;;;;;;;1999.90;592.87;;;9.60;99.90;;;;;;5091066;28;20259;-52
2023/04/21 03:49:39;;;;;;;1999.90;996.83;;;9.50;99.90;;;;;;5091475;28;20290;-52
2023/04/21 03:52:07;;;;;;;1999.90;419.97;;;9.60;99.90;;;;;;5089244;28;20213;-53
2023/04/21 03:54:35;;;;;;;1999.90;999.90;;;9.50;99.90;;;;;;5090911;28;20317;-52
2023/04/21 03:57:03;;;;;;;1999.90;364.13;;;9.60;99.90;;;;;;5091100;28;20217;-52
2023/04/21 03:59:32;;;;;;;1999.90;466.63;;;9.60;99.90;;;;;;5090794;28;20300;-52
2023/04/21 04:02:00;;;;;;;1999.90;670.93;;;9.60;99.90;;;;;;5090795;28;20232;-52
2023/04/21 04:04:29;;;;;;;1999.90;520.70;;;9.60;99.90;;;;;;5090657;28;20224;-53
2023/04/21 04:06:57;;;;;;;1999.90;431.57;;;9.60;99.90;;;;;;5090338;28;20212;-53
2023/04/21 04:09:25;;;;;;;1999.90;597.97;;;9.40;99.90;;;;;;5077251;28;20236;-52
2023/04/21 04:11:53;;;;;;;1999.90;337.03;;;9.50;99.90;;;;;;5090915;28;20242;-52
2023/04/21 04:14:21;;;;;;;1999.90;268.93;;;9.50;99.90;;;;;;5090355;28;20230;-52
2023/04/21 04:16:51;;;;;;;1874.07;343.10;;;9.50;99.90;;;;;;5079016;28;20221;-52
2023/04/21 04:19:19;;;;;;;1999.90;331.87;;;9.50;99.90;;;;;;5087954;28;20629;-52
2023/04/21 04:21:47;;;;;;;1999.90;541.70;;;9.50;99.90;;;;;;5090616;28;20222;-52
2023/04/21 04:24:16;;;;;;;1999.90;568.67;;;9.50;99.90;;;;;;5090254;28;20749;-52
2023/04/21 04:26:44;;;;;;;1999.90;364.10;;;9.60;99.90;;;;;;5090385;28;20636;-52
2023/04/21 04:29:12;;;;;;;1999.90;697.30;;;9.50;99.90;;;;;;5090127;28;20228;-52
2023/04/21 04:31:40;;;;;;;1999.90;420.67;;;9.50;99.90;;;;;;5088251;28;20204;-51
2023/04/21 04:34:10;;;;;;;1999.90;666.13;;;9.60;99.90;;;;;;5084124;28;20235;-52
2023/04/21 04:36:38;;;;;;;1999.90;691.87;;;9.60;99.90;;;;;;5085916;28;20244;-52
2023/04/21 04:39:07;;;;;;;1999.90;672.10;;;9.70;99.90;;;;;;5083285;28;20240;-52
2023/04/21 04:41:36;;;;;;;1999.90;720.40;;;9.70;99.90;;;;;;5084982;28;20212;-52
2023/04/21 04:44:05;;;;;;;1999.90;418.47;;;9.70;99.90;;;;;;5080841;28;20229;-52
2023/04/21 04:46:33;;;;;;;1999.90;349.40;;;9.60;99.90;;;;;;5090089;28;20212;-51
2023/04/21 04:49:01;;;;;;;1999.90;630.77;;;9.60;99.90;;;;;;5090146;28;20224;-52
2023/04/21 04:51:31;;;;;;;1999.90;575.97;;;9.70;99.90;;;;;;5089786;28;20253;-52
2023/04/21 04:53:59;;;;;;;1999.90;626.70;;;9.70;99.90;;;;;;5089883;28;20259;-52
2023/04/21 04:56:29;;;;;;;1627.07;235.23;;;9.60;99.90;;;;;;5089692;28;20736;-52
2023/04/21 04:58:57;;;;;;;1999.90;659.60;;;9.50;99.90;;;;;;5089932;28;20196;-53
2023/04/21 05:01:28;;;;;;;1999.90;878.30;;;9.60;99.90;;;;;;5089625;28;20794;-52
2023/04/21 05:03:57;;;;;;;1999.90;673.03;;;9.60;99.90;;;;;;5089721;28;20228;-52
2023/04/21 05:06:27;;;;;;;1442.33;218.03;;;9.70;99.90;;;;;;5089292;28;20237;-52
2023/04/21 05:08:56;;;;;;;1999.90;546.30;;;9.70;99.90;;;;;;5089578;28;20282;-52
2023/04/21 05:11:24;;;;;;;1999.90;814.23;;;9.70;99.90;;;;;;5089601;28;20247;-51
2023/04/21 05:13:52;;;;;;;1999.90;635.77;;;9.80;99.90;;;;;;5089395;28;20227;-53
2023/04/21 05:16:20;;;;;;;1999.90;418.13;;;9.80;99.90;;;;;;5089473;28;20227;-52
2023/04/21 05:18:52;;;;;;;1999.90;404.87;;;9.70;99.90;;;;;;5089143;28;20693;-52
2023/04/21 05:21:26;;;;;;;1999.90;558.07;;;9.90;99.90;;;;;;5089689;28;20243;-53
2023/04/21 05:23:59;;;;;;;1999.90;502.63;;;9.90;99.90;;;;;;5089158;28;20255;-52
2023/04/21 05:26:27;;;;;;;1999.90;883.87;;;9.90;99.90;;;;;;5088928;28;20216;-52
2023/04/21 05:28:56;;;;;;;1999.90;496.57;;;10.00;99.90;;;;;;5088854;28;20455;-52
2023/04/21 05:31:25;;;;;;;1999.90;606.93;;;10.00;99.90;;;;;;5088163;28;20210;-52
2023/04/21 05:33:53;;;;;;;1015.93;146.77;;;10.00;99.90;;;;;;5086950;28;20232;-52
2023/04/21 05:36:23;;;;;;;1999.90;825.37;;;10.00;99.90;;;;;;5088797;28;20218;-52
2023/04/21 05:38:52;;;;;;;1999.90;422.00;;;10.10;99.90;;;;;;5088825;28;20287;-53
2023/04/21 05:41:22;;;;;;;1999.90;482.60;;;10.00;99.90;;;;;;5088193;28;20664;-53
2023/04/21 05:43:50;;;;;;;1999.90;719.73;;;10.00;99.90;;;;;;5075340;28;20354;-53
2023/04/21 05:46:18;;;;;;;1999.90;470.37;;;10.00;99.90;;;;;;5084017;28;20230;-52
2023/04/21 05:48:46;;;;;;;1999.90;496.33;;;10.10;99.90;;;;;;5088826;28;20231;-52
2023/04/21 05:51:15;;;;;;;1999.90;569.97;;;10.00;99.90;;;;;;5088775;28;20208;-53
2023/04/21 05:53:45;;;;;;;1999.90;751.13;;;10.00;99.90;;;;;;5086721;28;20263;-52
2023/04/21 05:56:13;;;;;;;1999.90;862.40;;;10.10;99.90;;;;;;5088577;28;20236;-52
2023/04/21 05:58:42;;;;;;;1999.90;910.80;;;10.20;99.90;;;;;;5088664;28;20201;-52
2023/04/21 06:01:11;;;;;;;1999.90;726.20;;;10.30;99.90;;;;;;5088619;28;20301;-52
2023/04/21 06:03:39;;;;;;;1999.90;392.20;;;10.30;99.90;;;;;;5087607;28;20234;-52
2023/04/21 06:06:10;;;;;;;1999.90;633.07;;;10.30;99.90;;;;;;5087745;28;20245;-52
2023/04/21 06:08:38;;;;;;;1999.90;728.97;;;10.30;99.90;;;;;;5088208;28;20307;-51
2023/04/21 06:11:06;;;;;;;1999.90;627.93;;;10.50;99.90;;;;;;5088472;28;20257;-52
2023/04/21 06:13:34;;;;;;;1999.90;973.60;;;10.50;99.90;;;;;;5088144;28;20243;-52
2023/04/21 06:16:06;;;;;;;1999.90;592.17;;;10.80;99.90;;;;;;5088775;28;20287;-52
2023/04/21 06:18:35;;;;;;;1999.90;638.57;;;10.70;99.90;;;;;;5088601;28;20236;-52
2023/04/21 06:21:03;;;;;;;1999.90;421.47;;;10.80;99.90;;;;;;5088562;28;20208;-51
2023/04/21 06:23:31;;;;;;;1999.90;902.13;;;11.00;99.90;;;;;;5088232;28;20303;-52
2023/04/21 06:26:03;;;;;;;1999.90;561.13;;;11.20;99.90;;;;;;5088412;28;20228;-53
2023/04/21 06:28:31;;;;;;;1999.90;780.63;;;11.30;99.90;;;;;;5088205;28;20302;-52
2023/04/21 06:31:00;;;;;;;1999.90;691.70;;;11.40;99.90;;;;;;5087657;28;20200;-52
2023/04/21 06:33:29;;;;;;;1999.90;875.20;;;11.40;99.90;;;;;;5089271;28;20203;-52
2023/04/21 06:35:57;;;;;;;1999.90;924.77;;;11.60;99.90;;;;;;5094037;28;20235;-53
2023/04/21 06:38:25;;;;;;;1999.90;868.30;;;11.60;99.90;;;;;;5093172;28;20227;-52
2023/04/21 06:40:53;;;;;;;1999.90;699.43;;;11.70;99.90;;;;;;5100936;28;20238;-52
2023/04/21 06:43:21;;;;;;;1999.90;639.23;;;11.70;99.90;;;;;;5111728;28;20239;-53
2023/04/21 06:45:49;;;;;;;1999.90;878.87;;;11.80;99.90;;;;;;5087881;28;20604;-52
2023/04/21 06:48:18;;;;;;;1999.90;468.00;;;12.00;99.90;;;;;;5109577;28;20230;-53
2023/04/21 06:50:47;;;;;;;1999.90;758.63;;;12.00;99.90;;;;;;5103007;28;20238;-52
2023/04/21 06:53:16;;;;;;;1999.90;972.10;;;12.20;99.90;;;;;;5108459;28;20212;-52
2023/04/21 06:55:45;;;;;;;1999.90;593.17;;;12.50;99.90;;;;;;5112810;28;20227;-53
2023/04/21 06:58:13;;;;;;;1999.90;487.63;;;12.40;99.90;;;;;;5112450;28;20246;-52
2023/04/21 07:00:41;;;;;;;1999.90;999.90;;;12.40;99.90;;;;;;5112610;28;20660;-53
2023/04/21 07:03:09;;;;;;;1999.90;830.03;;;12.70;99.90;;;;;;5112299;28;20677;-53
2023/04/21 07:05:37;;;;;;;1999.90;955.70;;;13.10;99.90;;;;;;5098066;28;20276;-53
2023/04/21 07:08:06;;;;;;;1999.90;844.00;;;13.90;99.90;;;;;;5090678;28;20675;-52
2023/04/21 07:10:34;;;;;;;1999.90;771.50;;;14.40;99.90;;;;;;5098520;28;20245;-53
2023/04/21 07:13:02;;;;;;;1999.90;776.58;;;14.80;99.90;;;;;;5096158;28;20363;-53
2023/04/21 07:15:30;;;;;;;1999.90;927.53;;;14.70;99.90;;;;;;5091910;28;20310;-53
2023/04/21 07:17:59;;;;;;;1999.90;999.90;;;14.50;99.90;;;;;;5097504;28;20231;-53
2023/04/21 07:20:27;;;;;;;1999.90;999.90;;;14.40;99.90;;;;;;5107060;28;20631;-53
2023/04/21 07:22:55;;;;;;;1999.90;841.63;;;13.70;99.90;;;;;;5111649;28;20204;-53
2023/04/21 07:25:24;;;;;;;1999.90;778.03;;;13.40;99.90;;;;;;5111629;28;20254;-52
2023/04/21 07:27:52;;;;;;;1999.90;728.90;;;13.10;99.90;;;;;;5084101;28;20253;-53
2023/04/21 07:30:20;;;;;;;1999.90;735.10;;;13.00;99.90;;;;;;5111521;28;20314;-53
2023/04/21 07:32:48;;;;;;;1999.90;999.90;;;12.80;99.90;;;;;;5093450;28;20287;-54
2023/04/21 07:35:17;;;;;;;1999.90;757.57;;;12.80;99.90;;;;;;5095223;28;20224;-53
2023/04/21 07:37:45;;;;;;;1999.90;522.47;;;12.70;99.90;;;;;;5096662;28;20630;-53
2023/04/21 07:40:14;;;;;;;1999.90;849.23;;;12.60;99.90;;;;;;5093083;28;20207;-53
2023/04/21 07:42:43;;;;;;;1999.90;569.97;;;12.70;99.90;;;;;;5089657;28;20209;-52
2023/04/21 07:45:12;;;;;;;1999.90;606.23;;;12.80;99.90;;;;;;5090548;28;20268;-53
2023/04/21 07:47:40;;;;;;;1999.90;702.00;;;13.10;99.90;;;;;;5095654;28;20295;-52
2023/04/21 07:50:09;;;;;;;1999.90;926.97;;;13.60;99.90;;;;;;5111932;28;20288;-52
2023/04/21 07:52:37;;;;;;;1999.90;754.33;;;14.00;99.90;;;;;;5096692;28;20270;-53
2023/04/21 07:55:06;;;;;;;1999.90;999.90;;;14.50;99.90;;;;;;5090573;28;20369;-52
2023/04/21 07:57:37;;;;;;;1999.90;841.70;;;15.00;99.90;;;;;;5104086;28;20239;-53
2023/04/21 08:00:08;;;;;;;1999.90;992.92;;;15.00;99.90;;;;;;5111610;28;20550;-53
2023/04/21 08:02:36;;;;;;;1999.90;999.90;;;15.20;99.90;;;;;;5111559;28;20581;-53
2023/04/21 08:05:04;;;;;;;1999.90;892.30;;;15.00;99.90;;;;;;5111238;28;20661;-54
2023/04/21 08:07:33;;;;;;;1999.90;999.90;;;14.90;99.90;;;;;;5111181;28;20212;-53
2023/04/21 08:10:01;;;;;;;1999.90;999.90;;;15.00;99.90;;;;;;5101708;28;20228;-53
2023/04/21 08:12:29;;;;;;;1999.90;827.25;;;14.60;99.90;;;;;;5099928;28;20625;-52
2023/04/21 08:14:57;;;;;;;1999.90;805.20;;;14.20;99.90;;;;;;5096193;28;20331;-53
2023/04/21 08:17:27;;;;;;;1999.90;999.90;;;14.00;99.90;;;;;;5109578;27;20651;-53
2023/04/21 08:19:55;;;;;;;1999.90;999.90;;;14.10;99.90;;;;;;5104885;28;20203;-54
2023/04/21 08:22:25;;;;;;;1999.90;684.67;;;14.00;99.90;;;;;;5083560;28;20218;-53
2023/04/21 08:24:53;;;;;;;1999.90;704.63;;;13.90;99.90;;;;;;5110970;28;20227;-52
2023/04/21 08:27:21;;;;;;;1999.90;833.97;;;14.00;99.90;;;;;;5110733;28;20861;-53
2023/04/21 08:29:50;;;;;;;1999.90;879.50;;;14.00;99.90;;;;;;5110953;28;20228;-53
2023/04/21 08:32:22;;;;;;;1999.90;722.55;;;14.10;99.90;;;;;;5110546;28;20204;-53
2023/04/21 08:34:52;;;;;;;1999.90;684.90;;;14.10;99.90;;;;;;5090041;28;20220;-52
2023/04/21 08:37:22;;;;;;;1999.90;750.42;;;14.40;99.90;;;;;;5092848;28;20206;-53
2023/04/21 08:39:50;;;;;;;1999.90;907.33;;;14.50;99.90;;;;;;5095246;28;20201;-53
2023/04/21 08:42:18;;;;;;;1999.90;732.27;;;14.60;99.90;;;;;;5099680;28;20623;-53
2023/04/21 08:44:47;;;;;;;1999.90;774.67;;;14.70;99.90;;;;;;5082757;28;20311;-54
2023/04/21 08:47:15;;;;;;;1999.90;709.33;;;14.90;99.90;;;;;;5097479;28;20243;-52
2023/04/21 08:49:44;;;;;;;1999.90;686.45;;;14.90;99.90;;;;;;5082591;28;20642;-53
2023/04/21 08:52:13;;;;;;;1999.90;752.47;;;15.00;99.90;;;;;;5097406;27;20204;-52
2023/04/21 08:54:42;;;;;;;1999.90;829.17;;;15.20;99.90;;;;;;5109557;28;20227;-53
2023/04/21 08:57:10;;;;;;;1999.90;881.47;;;15.80;99.90;;;;;;5110594;28;20249;-53
2023/04/21 08:59:43;;;;;;;1999.90;862.67;;;16.30;99.90;;;;;;5108597;28;20871;-53
2023/04/21 09:02:13;;;;;;;1999.90;985.88;;;16.60;99.90;;;;;;5104125;28;20225;-53
2023/04/21 09:04:43;;;;;;;1999.90;970.42;;;16.80;99.90;;;;;;5092398;28;20228;-53
2023/04/21 09:07:31;;;;;;;1999.90;951.47;;;16.80;99.90;;;;;;5089663;28;20594;-52
2023/04/21 09:10:00;;;;;;;1999.90;997.42;;;17.00;99.90;;;;;;5078792;28;20237;-52
2023/04/21 09:12:30;;;;;;;1999.90;999.90;;;17.10;99.90;;;;;;5080693;28;20270;-52
2023/04/21 09:14:59;;;;;;;1999.90;999.90;;;17.20;99.90;;;;;;5084185;28;20277;-52
2023/04/21 09:17:31;;;;;;;1999.90;999.90;;;17.00;99.90;;;;;;5088543;28;20235;-53
2023/04/21 09:20:14;;;;;;;1999.90;999.90;;;17.10;99.90;;;;;;5088980;28;20205;-53
2023/04/21 09:22:44;;;;;;;1999.90;999.90;;;17.10;99.90;;;;;;5077479;28;20726;-52
2023/04/21 09:25:16;;;;;;;1999.90;999.90;;;16.90;99.90;;;;;;5089405;28;20235;-51
2023/04/21 09:27:45;;;;;;;1999.90;997.03;;;16.70;99.90;;;;;;5089513;28;20227;-53
2023/04/21 09:30:14;;;;;;;1999.90;973.85;;;16.90;99.90;;;;;;5089117;28;20314;-52
2023/04/21 09:32:42;;;;;;;1999.90;999.90;;;17.10;99.90;;;;;;5087952;28;20197;-52
2023/04/21 09:35:10;;;;;;;1999.90;859.28;;;17.10;99.90;;;;;;5086883;28;20221;-52
2023/04/21 09:37:39;;;;;;;1999.90;999.90;;;17.30;99.90;;;;;;5089036;28;20208;-52
2023/04/21 09:40:13;;;;;;;1999.90;999.90;;;17.50;99.90;;;;;;5089186;28;20242;-51
2023/04/21 09:42:41;;;;;;;1999.90;966.88;;;17.40;99.90;;;;;;5088635;28;20269;-53
2023/04/21 09:45:13;;;;;;;1999.90;999.90;;;17.40;99.90;;;;;;5088738;28;20319;-52
2023/04/21 09:47:48;;;;;;;1999.90;999.90;;;17.40;99.90;;;;;;5088923;28;20220;-52
2023/04/21 09:50:17;;;;;;;1999.90;961.42;;;17.40;99.90;;;;;;5088985;28;20212;-52
2023/04/21 09:53:07;;;;;;;1999.90;999.90;;;17.30;99.90;;;;;;5088821;28;20208;-53
2023/04/21 09:55:37;;;;;;;1999.90;999.90;;;17.40;99.90;;;;;;5089002;28;20281;-53
2023/04/21 09:58:08;;;;;;;1999.90;999.90;;;17.40;99.90;;;;;;5088489;28;20242;-52
2023/04/21 10:00:38;;;;;;;1999.90;999.90;;;17.30;99.90;;;;;;5088856;28;20208;-53
2023/04/21 10:03:10;;;;;;;1999.90;999.90;;;17.30;99.90;;;;;;5088571;28;20772;-52
2023/04/21 10:05:39;;;;;;;1999.90;999.90;;;17.40;99.90;;;;;;5088734;28;20228;-52
2023/04/21 10:08:11;;;;;;;1999.90;999.90;;;17.50;99.90;;;;;;5088680;28;20211;-53
2023/04/21 10:10:41;;;;;;;1999.90;999.90;;;17.60;99.90;;;;;;5088435;28;20315;-52
2023/04/21 10:13:15;;;;;;;1999.90;999.90;;;17.60;99.90;;;;;;5074301;28;20295;-53
2023/04/21 10:15:43;;;;;;;1999.90;999.90;;;17.50;99.90;;;;;;5087914;28;20310;-52
2023/04/21 10:18:13;;;;;;;1999.90;999.90;;;17.60;99.90;;;;;;5088464;28;20220;-52
2023/04/21 10:20:55;;;;;;;1999.90;999.90;;;17.50;99.90;;;;;;5088670;28;20236;-52
2023/04/21 10:23:31;;;;;;;1999.90;999.90;;;17.50;99.90;;;;;;5088403;28;20295;-52
2023/04/21 10:26:06;;;;;;;1999.90;999.90;;;17.50;99.90;;;;;;5088722;28;20247;-52
2023/04/21 10:28:54;;;;;;;1999.90;999.90;;;17.60;99.90;;;;;;5085493;28;20576;-52
2023/04/21 10:31:31;;;;;;;1999.90;999.90;;;17.60;99.90;;;;;;5088293;28;20740;-52
2023/04/21 10:34:21;;;;;;;1999.90;999.90;;;17.60;99.90;;;;;;5085639;28;20319;-52
2023/04/21 10:37:18;;;;;;;1999.90;999.90;;;17.60;99.90;;;;;;5087947;28;20243;-53
2023/04/21 10:39:52;;;;;;;1999.90;999.90;;;17.80;99.90;;;;;;5083183;28;20290;-53
2023/04/21 10:42:27;;;;;;;1999.90;999.90;;;17.70;99.90;;;;;;5088173;28;20238;-53
2023/04/21 10:45:10;;;;;;;1999.90;999.90;;;17.90;99.90;;;;;;5088160;28;20646;-52
2023/04/21 10:47:41;;;;;;;1999.90;999.90;;;18.00;99.90;;;;;;5084269;28;20280;-52
2023/04/21 10:50:21;;;;;;;1999.90;999.90;;;17.90;99.90;;;;;;5088272;28;20300;-53
2023/04/21 10:52:55;;;;;;;1999.90;999.90;;;17.60;99.90;;;;;;5088589;28;20224;-52
2023/04/21 10:55:26;;;;;;;1999.90;999.90;;;17.60;99.90;;;;;;5088020;28;20668;-53
2023/04/21 10:57:57;;;;;;;1999.90;999.90;;;17.50;99.90;;;;;;5088256;28;20238;-52
2023/04/21 11:00:26;;;;;;;1999.90;999.90;;;17.40;99.90;;;;;;5087963;28;20310;-52
2023/04/21 11:02:58;;;;;;;1999.90;990.03;;;17.50;99.90;;;;;;5084725;28;22656;-52
2023/04/21 11:05:33;;;;;;;1999.90;999.90;;;17.60;99.90;;;;;;5082927;28;20256;-53
2023/04/21 11:08:10;;;;;;;1999.90;999.90;;;17.70;99.90;;;;;;5087659;28;20231;-52
2023/04/21 11:10:53;;;;;;;1999.90;999.90;;;17.70;99.90;;;;;;5087677;28;20295;-50
2023/04/21 11:13:24;;;;;;;1999.90;999.90;;;17.60;99.90;;;;;;5087975;28;20204;-51
2023/04/21 11:16:00;;;;;;;1999.90;999.90;;;17.60;99.90;;;;;;5088143;28;20702;-50
2023/04/21 11:18:38;;;;;;;1999.90;973.05;;;17.60;99.90;;;;;;5087788;28;20287;-50
2023/04/21 11:21:08;;;;;;;1999.90;999.90;;;17.70;99.90;;;;;;5087926;28;20204;-51
2023/04/21 11:23:39;;;;;;;1999.90;999.90;;;18.10;99.90;;;;;;5087517;28;20243;-50
2023/04/21 11:26:07;;;;;;;1999.90;999.90;;;18.30;99.90;;;;;;5088072;28;20410;-51
2023/04/21 11:28:36;;;;;;;1999.90;999.90;;;18.30;99.90;;;;;;5088943;28;20240;-51
2023/04/21 11:31:05;;;;;;;1999.90;999.90;;;18.50;99.90;;;;;;5091515;28;20742;-51
2023/04/21 11:33:36;;;;;;;1999.90;999.90;;;18.60;99.90;;;;;;5089677;28;20248;-51
2023/04/21 11:36:05;;;;;;;1999.90;999.90;;;18.80;99.90;;;;;;5090331;28;20223;-51
2023/04/21 11:38:39;;;;;;;1999.90;999.90;;;18.80;99.90;;;;;;5091224;28;20204;-50
2023/04/21 11:41:08;;;;;;;1999.90;999.90;;;19.00;99.90;;;;;;5091349;28;20269;-50
2023/04/21 11:43:38;;;;;;;1999.90;999.90;;;18.80;99.90;;;;;;5090777;28;20209;-50
2023/04/21 11:46:18;;;;;;;1999.90;999.90;;;18.70;99.90;;;;;;5091185;28;20262;-50
2023/04/21 11:48:46;;;;;;;1999.90;999.90;;;18.80;99.90;;;;;;5086984;28;20204;-50
2023/04/21 11:51:18;;;;;;;1999.90;999.90;;;18.80;99.90;;;;;;5090855;28;20216;-50
2023/04/21 11:53:49;;;;;;;1999.90;999.90;;;18.80;99.90;;;;;;5091132;28;20224;-50
2023/04/21 11:56:21;;;;;;;1999.90;999.90;;;18.80;99.90;;;;;;5090153;28;20255;-51
2023/04/21 11:58:52;;;;;;;1999.90;999.90;;;18.70;99.90;;;;;;5083370;28;20200;-52
2023/04/21 12:01:21;;;;;;;1999.90;999.90;;;18.70;99.90;;;;;;5091162;28;20215;-52
2023/04/21 12:03:53;;;;;;;1999.90;999.90;;;18.80;99.90;;;;;;5090774;28;20274;-52
2023/04/21 12:06:27;;;;;;;1999.90;999.90;;;18.80;99.90;;;;;;5090118;28;20200;-53
2023/04/21 12:08:57;;;;;;;1999.90;999.90;;;18.60;99.90;;;;;;5076417;28;20722;-52
2023/04/21 12:11:26;;;;;;;1999.90;999.90;;;18.60;99.90;;;;;;5083599;28;20238;-52
2023/04/21 12:13:58;;;;;;;1999.90;999.90;;;18.60;99.90;;;;;;5090608;28;20334;-53
2023/04/21 12:16:27;;;;;;;1999.90;999.90;;;18.70;99.90;;;;;;5079051;28;20315;-53